sensor_id;sensor_type;location;lat;lon;timestamp;P1;durP1;ratioP1;P2;durP2;ratioP2
39612;SDS011;25303;48.896;13.342;2022-07-06T00:02:18;0.50;;;0.43;;
39612;SDS011;25303;48.896;13.342;2022-07-06T00:05:01;0.52;;;0.45;;
39612;SDS011;25303;48.896;13.342;2022-07-06T00:07:45;2.53;;;0.60;;
39612;SDS011;25303;48.896;13.342;2022-07-06T00:10:28;1.95;;;0.60;;
39612;SDS011;25303;48.896;13.342;2022-07-06T00:13:12;2.22;;;0.60;;
39612;SDS011;25303;48.896;13.342;2022-07-06T00:15:55;1.52;;;0.50;;
39612;SDS011;25303;48.896;13.342;2022-07-06T00:18:38;1.40;;;0.60;;
39612;SDS011;25303;48.896;13.342;2022-07-06T00:21:22;0.50;;;0.50;;
39612;SDS011;25303;48.896;13.342;2022-07-06T00:24:05;3.22;;;0.50;;
39612;SDS011;25303;48.896;13.342;2022-07-06T00:26:48;0.90;;;0.50;;
39612;SDS011;25303;48.896;13.342;2022-07-06T00:29:33;0.60;;;0.50;;
39612;SDS011;25303;48.896;13.342;2022-07-06T00:32:16;0.68;;;0.45;;
39612;SDS011;25303;48.896;13.342;2022-07-06T00:34:59;0.85;;;0.50;;
39612;SDS011;25303;48.896;13.342;2022-07-06T00:37:42;0.70;;;0.50;;
39612;SDS011;25303;48.896;13.342;2022-07-06T00:40:25;0.63;;;0.57;;
39612;SDS011;25303;48.896;13.342;2022-07-06T00:43:08;0.88;;;0.60;;
39612;SDS011;25303;48.896;13.342;2022-07-06T00:45:53;0.90;;;0.60;;
39612;SDS011;25303;48.896;13.342;2022-07-06T00:48:36;0.68;;;0.50;;
39612;SDS011;25303;48.896;13.342;2022-07-06T00:51:19;0.50;;;0.50;;
39612;SDS011;25303;48.896;13.342;2022-07-06T00:54:04;0.95;;;0.60;;
39612;SDS011;25303;48.896;13.342;2022-07-06T00:56:47;1.38;;;0.60;;
39612;SDS011;25303;48.896;13.342;2022-07-06T00:59:30;0.93;;;0.50;;
39612;SDS011;25303;48.896;13.342;2022-07-06T01:02:15;0.60;;;0.50;;
39612;SDS011;25303;48.896;13.342;2022-07-06T01:04:58;3.30;;;0.60;;
39612;SDS011;25303;48.896;13.342;2022-07-06T01:07:42;0.50;;;0.50;;
39612;SDS011;25303;48.896;13.342;2022-07-06T01:10:26;1.00;;;0.63;;
39612;SDS011;25303;48.896;13.342;2022-07-06T01:13:09;0.75;;;0.52;;
39612;SDS011;25303;48.896;13.342;2022-07-06T01:15:52;2.55;;;0.60;;
39612;SDS011;25303;48.896;13.342;2022-07-06T01:18:37;0.98;;;0.60;;
39612;SDS011;25303;48.896;13.342;2022-07-06T01:21:23;0.63;;;0.50;;
39612;SDS011;25303;48.896;13.342;2022-07-06T01:24:06;2.67;;;0.45;;
39612;SDS011;25303;48.896;13.342;2022-07-06T01:26:49;0.90;;;0.55;;
39612;SDS011;25303;48.896;13.342;2022-07-06T01:29:32;0.77;;;0.45;;
39612;SDS011;25303;48.896;13.342;2022-07-06T01:32:16;0.97;;;0.60;;
39612;SDS011;25303;48.896;13.342;2022-07-06T01:34:59;1.80;;;0.57;;
39612;SDS011;25303;48.896;13.342;2022-07-06T01:37:45;0.73;;;0.60;;
39612;SDS011;25303;48.896;13.342;2022-07-06T01:40:28;0.45;;;0.45;;
39612;SDS011;25303;48.896;13.342;2022-07-06T01:43:11;1.20;;;0.52;;
39612;SDS011;25303;48.896;13.342;2022-07-06T01:45:54;0.65;;;0.65;;
39612;SDS011;25303;48.896;13.342;2022-07-06T01:48:38;1.13;;;0.60;;
39612;SDS011;25303;48.896;13.342;2022-07-06T01:51:21;0.50;;;0.50;;
39612;SDS011;25303;48.896;13.342;2022-07-06T01:54:05;0.50;;;0.50;;
39612;SDS011;25303;48.896;13.342;2022-07-06T01:56:49;1.40;;;0.68;;
39612;SDS011;25303;48.896;13.342;2022-07-06T01:59:32;1.38;;;0.57;;
39612;SDS011;25303;48.896;13.342;2022-07-06T02:02:15;0.80;;;0.50;;
39612;SDS011;25303;48.896;13.342;2022-07-06T02:04:59;1.00;;;0.50;;
39612;SDS011;25303;48.896;13.342;2022-07-06T02:07:42;1.00;;;0.47;;
39612;SDS011;25303;48.896;13.342;2022-07-06T02:10:28;1.35;;;0.60;;
39612;SDS011;25303;48.896;13.342;2022-07-06T02:15:54;0.45;;;0.45;;
39612;SDS011;25303;48.896;13.342;2022-07-06T02:18:37;0.63;;;0.52;;
39612;SDS011;25303;48.896;13.342;2022-07-06T02:21:20;1.02;;;0.70;;
39612;SDS011;25303;48.896;13.342;2022-07-06T02:24:04;1.23;;;0.57;;
39612;SDS011;25303;48.896;13.342;2022-07-06T02:26:48;2.90;;;0.50;;
39612;SDS011;25303;48.896;13.342;2022-07-06T02:29:31;1.75;;;0.57;;
39612;SDS011;25303;48.896;13.342;2022-07-06T02:32:14;0.68;;;0.50;;
39612;SDS011;25303;48.896;13.342;2022-07-06T02:34:58;0.70;;;0.60;;
39612;SDS011;25303;48.896;13.342;2022-07-06T02:37:41;0.70;;;0.60;;
39612;SDS011;25303;48.896;13.342;2022-07-06T02:40:24;0.70;;;0.50;;
39612;SDS011;25303;48.896;13.342;2022-07-06T02:43:09;1.45;;;0.50;;
39612;SDS011;25303;48.896;13.342;2022-07-06T02:45:54;0.73;;;0.50;;
39612;SDS011;25303;48.896;13.342;2022-07-06T02:48:37;1.10;;;0.60;;
39612;SDS011;25303;48.896;13.342;2022-07-06T02:51:20;1.13;;;0.50;;
39612;SDS011;25303;48.896;13.342;2022-07-06T02:56:48;1.10;;;0.50;;
39612;SDS011;25303;48.896;13.342;2022-07-06T02:59:36;2.88;;;0.50;;
39612;SDS011;25303;48.896;13.342;2022-07-06T03:02:20;0.52;;;0.50;;
39612;SDS011;25303;48.896;13.342;2022-07-06T03:05:03;0.63;;;0.55;;
39612;SDS011;25303;48.896;13.342;2022-07-06T03:07:47;2.22;;;0.57;;
39612;SDS011;25303;48.896;13.342;2022-07-06T03:10:31;1.27;;;0.52;;
39612;SDS011;25303;48.896;13.342;2022-07-06T03:13:14;1.65;;;0.60;;
39612;SDS011;25303;48.896;13.342;2022-07-06T03:16:00;1.90;;;0.63;;
39612;SDS011;25303;48.896;13.342;2022-07-06T03:18:44;0.95;;;0.50;;
39612;SDS011;25303;48.896;13.342;2022-07-06T03:21:28;0.77;;;0.50;;
39612;SDS011;25303;48.896;13.342;2022-07-06T03:24:11;0.77;;;0.43;;
39612;SDS011;25303;48.896;13.342;2022-07-06T03:26:54;0.93;;;0.45;;
39612;SDS011;25303;48.896;13.342;2022-07-06T03:29:37;0.60;;;0.40;;
39612;SDS011;25303;48.896;13.342;2022-07-06T03:32:22;1.65;;;0.60;;
39612;SDS011;25303;48.896;13.342;2022-07-06T03:35:06;1.38;;;0.50;;
39612;SDS011;25303;48.896;13.342;2022-07-06T03:37:49;0.68;;;0.50;;
39612;SDS011;25303;48.896;13.342;2022-07-06T03:40:34;0.90;;;0.70;;
39612;SDS011;25303;48.896;13.342;2022-07-06T03:43:17;1.00;;;0.60;;
39612;SDS011;25303;48.896;13.342;2022-07-06T03:46:00;1.17;;;0.50;;
39612;SDS011;25303;48.896;13.342;2022-07-06T03:48:45;0.68;;;0.57;;
39612;SDS011;25303;48.896;13.342;2022-07-06T03:51:28;1.13;;;0.60;;
39612;SDS011;25303;48.896;13.342;2022-07-06T03:54:11;1.52;;;0.55;;
39612;SDS011;25303;48.896;13.342;2022-07-06T03:56:54;0.73;;;0.55;;
39612;SDS011;25303;48.896;13.342;2022-07-06T03:59:37;1.13;;;0.70;;
39612;SDS011;25303;48.896;13.342;2022-07-06T04:02:20;1.17;;;0.70;;
39612;SDS011;25303;48.896;13.342;2022-07-06T04:05:08;0.90;;;0.57;;
39612;SDS011;25303;48.896;13.342;2022-07-06T04:07:51;1.77;;;0.80;;
39612;SDS011;25303;48.896;13.342;2022-07-06T04:10:38;0.60;;;0.50;;
39612;SDS011;25303;48.896;13.342;2022-07-06T04:13:22;0.50;;;0.50;;
39612;SDS011;25303;48.896;13.342;2022-07-06T04:16:05;1.60;;;0.63;;
39612;SDS011;25303;48.896;13.342;2022-07-06T04:18:49;1.23;;;0.70;;
39612;SDS011;25303;48.896;13.342;2022-07-06T04:21:34;0.60;;;0.60;;
39612;SDS011;25303;48.896;13.342;2022-07-06T04:27:00;0.52;;;0.40;;
39612;SDS011;25303;48.896;13.342;2022-07-06T04:29:43;1.02;;;0.60;;
39612;SDS011;25303;48.896;13.342;2022-07-06T04:32:27;1.85;;;0.60;;
39612;SDS011;25303;48.896;13.342;2022-07-06T04:35:10;1.38;;;0.68;;
39612;SDS011;25303;48.896;13.342;2022-07-06T04:37:56;1.08;;;0.60;;
39612;SDS011;25303;48.896;13.342;2022-07-06T04:40:40;1.45;;;0.70;;
39612;SDS011;25303;48.896;13.342;2022-07-06T04:43:27;1.05;;;0.68;;
39612;SDS011;25303;48.896;13.342;2022-07-06T04:46:10;0.60;;;0.50;;
39612;SDS011;25303;48.896;13.342;2022-07-06T04:48:56;0.45;;;0.40;;
39612;SDS011;25303;48.896;13.342;2022-07-06T04:51:43;0.70;;;0.52;;
39612;SDS011;25303;48.896;13.342;2022-07-06T04:54:27;2.03;;;0.70;;
39612;SDS011;25303;48.896;13.342;2022-07-06T04:57:10;1.55;;;0.60;;
39612;SDS011;25303;48.896;13.342;2022-07-06T04:59:55;1.73;;;0.70;;
39612;SDS011;25303;48.896;13.342;2022-07-06T05:02:38;1.10;;;0.50;;
39612;SDS011;25303;48.896;13.342;2022-07-06T05:05:21;0.77;;;0.60;;
39612;SDS011;25303;48.896;13.342;2022-07-06T05:08:05;0.70;;;0.60;;
39612;SDS011;25303;48.896;13.342;2022-07-06T05:10:50;2.88;;;0.77;;
39612;SDS011;25303;48.896;13.342;2022-07-06T05:13:35;0.70;;;0.50;;
39612;SDS011;25303;48.896;13.342;2022-07-06T05:16:19;0.65;;;0.60;;
39612;SDS011;25303;48.896;13.342;2022-07-06T05:19:02;1.15;;;0.50;;
39612;SDS011;25303;48.896;13.342;2022-07-06T05:21:45;0.80;;;0.60;;
39612;SDS011;25303;48.896;13.342;2022-07-06T05:24:28;1.23;;;0.60;;
39612;SDS011;25303;48.896;13.342;2022-07-06T05:27:13;1.10;;;0.60;;
39612;SDS011;25303;48.896;13.342;2022-07-06T05:29:56;0.65;;;0.65;;
39612;SDS011;25303;48.896;13.342;2022-07-06T05:32:39;1.02;;;0.70;;
39612;SDS011;25303;48.896;13.342;2022-07-06T05:35:22;1.00;;;0.60;;
39612;SDS011;25303;48.896;13.342;2022-07-06T05:38:26;0.98;;;0.60;;
39612;SDS011;25303;48.896;13.342;2022-07-06T05:41:10;2.13;;;0.70;;
39612;SDS011;25303;48.896;13.342;2022-07-06T05:43:54;1.20;;;0.88;;
39612;SDS011;25303;48.896;13.342;2022-07-06T05:46:37;0.90;;;0.77;;
39612;SDS011;25303;48.896;13.342;2022-07-06T05:49:20;1.38;;;0.90;;
39612;SDS011;25303;48.896;13.342;2022-07-06T05:52:20;1.25;;;0.80;;
39612;SDS011;25303;48.896;13.342;2022-07-06T05:55:03;1.23;;;0.68;;
39612;SDS011;25303;48.896;13.342;2022-07-06T05:57:47;1.20;;;0.80;;
39612;SDS011;25303;48.896;13.342;2022-07-06T06:00:34;0.82;;;0.70;;
39612;SDS011;25303;48.896;13.342;2022-07-06T06:03:23;1.75;;;1.10;;
39612;SDS011;25303;48.896;13.342;2022-07-06T06:06:06;0.98;;;0.82;;
39612;SDS011;25303;48.896;13.342;2022-07-06T06:08:50;1.40;;;0.77;;
39612;SDS011;25303;48.896;13.342;2022-07-06T06:11:33;1.92;;;1.10;;
39612;SDS011;25303;48.896;13.342;2022-07-06T06:14:16;1.10;;;0.98;;
39612;SDS011;25303;48.896;13.342;2022-07-06T06:17:00;1.13;;;0.93;;
39612;SDS011;25303;48.896;13.342;2022-07-06T06:19:43;1.15;;;1.00;;
39612;SDS011;25303;48.896;13.342;2022-07-06T06:22:26;2.33;;;1.00;;
39612;SDS011;25303;48.896;13.342;2022-07-06T06:25:09;1.88;;;1.10;;
39612;SDS011;25303;48.896;13.342;2022-07-06T06:27:52;2.80;;;1.13;;
39612;SDS011;25303;48.896;13.342;2022-07-06T06:30:36;1.77;;;1.05;;
39612;SDS011;25303;48.896;13.342;2022-07-06T06:33:21;1.77;;;0.98;;
39612;SDS011;25303;48.896;13.342;2022-07-06T06:36:04;1.60;;;1.00;;
39612;SDS011;25303;48.896;13.342;2022-07-06T06:38:47;1.30;;;0.93;;
39612;SDS011;25303;48.896;13.342;2022-07-06T06:41:37;1.75;;;1.10;;
39612;SDS011;25303;48.896;13.342;2022-07-06T06:44:20;2.65;;;0.90;;
39612;SDS011;25303;48.896;13.342;2022-07-06T06:47:04;1.67;;;0.85;;
39612;SDS011;25303;48.896;13.342;2022-07-06T06:49:49;1.13;;;0.98;;
39612;SDS011;25303;48.896;13.342;2022-07-06T06:52:32;2.40;;;1.10;;
39612;SDS011;25303;48.896;13.342;2022-07-06T06:55:21;1.17;;;1.00;;
39612;SDS011;25303;48.896;13.342;2022-07-06T06:58:04;1.10;;;0.90;;
39612;SDS011;25303;48.896;13.342;2022-07-06T07:00:47;1.30;;;0.98;;
39612;SDS011;25303;48.896;13.342;2022-07-06T07:03:30;1.67;;;1.00;;
39612;SDS011;25303;48.896;13.342;2022-07-06T07:06:14;1.25;;;0.77;;
39612;SDS011;25303;48.896;13.342;2022-07-06T07:08:57;1.45;;;1.00;;
39612;SDS011;25303;48.896;13.342;2022-07-06T07:11:40;2.22;;;1.00;;
39612;SDS011;25303;48.896;13.342;2022-07-06T07:14:23;1.40;;;0.95;;
39612;SDS011;25303;48.896;13.342;2022-07-06T07:17:06;2.60;;;0.95;;
39612;SDS011;25303;48.896;13.342;2022-07-06T07:19:49;2.08;;;1.10;;
39612;SDS011;25303;48.896;13.342;2022-07-06T07:22:33;2.17;;;1.17;;
39612;SDS011;25303;48.896;13.342;2022-07-06T07:25:16;3.15;;;1.00;;
39612;SDS011;25303;48.896;13.342;2022-07-06T07:27:59;2.38;;;1.00;;
39612;SDS011;25303;48.896;13.342;2022-07-06T07:30:42;1.90;;;1.13;;
39612;SDS011;25303;48.896;13.342;2022-07-06T07:33:25;2.38;;;1.23;;
39612;SDS011;25303;48.896;13.342;2022-07-06T07:36:09;3.08;;;1.63;;
39612;SDS011;25303;48.896;13.342;2022-07-06T07:38:53;5.20;;;1.80;;
39612;SDS011;25303;48.896;13.342;2022-07-06T07:41:36;3.95;;;1.60;;
39612;SDS011;25303;48.896;13.342;2022-07-06T07:44:19;2.03;;;1.20;;
39612;SDS011;25303;48.896;13.342;2022-07-06T07:47:02;4.00;;;1.50;;
39612;SDS011;25303;48.896;13.342;2022-07-06T07:49:45;3.22;;;1.38;;
39612;SDS011;25303;48.896;13.342;2022-07-06T07:52:29;2.30;;;1.30;;
39612;SDS011;25303;48.896;13.342;2022-07-06T07:55:13;2.05;;;1.40;;
39612;SDS011;25303;48.896;13.342;2022-07-06T07:58:16;3.25;;;1.20;;
39612;SDS011;25303;48.896;13.342;2022-07-06T08:00:59;2.03;;;1.10;;
39612;SDS011;25303;48.896;13.342;2022-07-06T08:03:43;4.40;;;1.30;;
39612;SDS011;25303;48.896;13.342;2022-07-06T08:06:26;1.85;;;1.38;;
39612;SDS011;25303;48.896;13.342;2022-07-06T08:09:09;1.30;;;1.20;;
39612;SDS011;25303;48.896;13.342;2022-07-06T08:11:54;1.83;;;1.10;;
39612;SDS011;25303;48.896;13.342;2022-07-06T08:14:37;2.30;;;1.50;;
39612;SDS011;25303;48.896;13.342;2022-07-06T08:17:20;1.98;;;1.30;;
39612;SDS011;25303;48.896;13.342;2022-07-06T08:20:03;2.83;;;1.52;;
39612;SDS011;25303;48.896;13.342;2022-07-06T08:22:47;1.75;;;1.15;;
39612;SDS011;25303;48.896;13.342;2022-07-06T08:25:30;4.97;;;1.30;;
39612;SDS011;25303;48.896;13.342;2022-07-06T08:28:15;1.58;;;1.20;;
39612;SDS011;25303;48.896;13.342;2022-07-06T08:30:58;3.25;;;1.48;;
39612;SDS011;25303;48.896;13.342;2022-07-06T08:33:41;2.47;;;1.30;;
39612;SDS011;25303;48.896;13.342;2022-07-06T08:36:24;1.35;;;1.17;;
39612;SDS011;25303;48.896;13.342;2022-07-06T08:39:07;1.58;;;1.00;;
39612;SDS011;25303;48.896;13.342;2022-07-06T08:41:50;2.08;;;1.20;;
39612;SDS011;25303;48.896;13.342;2022-07-06T08:44:35;1.98;;;0.80;;
39612;SDS011;25303;48.896;13.342;2022-07-06T08:47:19;2.65;;;1.00;;
39612;SDS011;25303;48.896;13.342;2022-07-06T08:50:05;2.58;;;0.90;;
39612;SDS011;25303;48.896;13.342;2022-07-06T08:52:49;5.45;;;1.40;;
39612;SDS011;25303;48.896;13.342;2022-07-06T08:55:33;2.75;;;1.10;;
39612;SDS011;25303;48.896;13.342;2022-07-06T08:58:17;1.70;;;1.10;;
39612;SDS011;25303;48.896;13.342;2022-07-06T09:01:02;3.70;;;1.20;;
39612;SDS011;25303;48.896;13.342;2022-07-06T09:06:31;1.02;;;0.80;;
39612;SDS011;25303;48.896;13.342;2022-07-06T09:09:15;2.95;;;1.08;;
39612;SDS011;25303;48.896;13.342;2022-07-06T09:12:02;1.67;;;1.20;;
39612;SDS011;25303;48.896;13.342;2022-07-06T09:14:46;1.77;;;1.00;;
39612;SDS011;25303;48.896;13.342;2022-07-06T09:17:31;4.05;;;1.30;;
39612;SDS011;25303;48.896;13.342;2022-07-06T09:20:14;1.23;;;0.80;;
39612;SDS011;25303;48.896;13.342;2022-07-06T09:22:57;2.47;;;1.08;;
39612;SDS011;25303;48.896;13.342;2022-07-06T09:28:26;1.55;;;0.90;;
39612;SDS011;25303;48.896;13.342;2022-07-06T09:31:22;3.25;;;1.10;;
39612;SDS011;25303;48.896;13.342;2022-07-06T09:34:07;2.42;;;1.27;;
39612;SDS011;25303;48.896;13.342;2022-07-06T09:36:52;3.55;;;1.27;;
39612;SDS011;25303;48.896;13.342;2022-07-06T09:39:35;2.90;;;1.08;;
39612;SDS011;25303;48.896;13.342;2022-07-06T09:42:18;2.45;;;1.23;;
39612;SDS011;25303;48.896;13.342;2022-07-06T09:45:08;2.05;;;0.95;;
39612;SDS011;25303;48.896;13.342;2022-07-06T09:47:51;1.92;;;1.00;;
39612;SDS011;25303;48.896;13.342;2022-07-06T09:50:39;4.28;;;1.30;;
39612;SDS011;25303;48.896;13.342;2022-07-06T09:53:23;2.22;;;1.00;;
39612;SDS011;25303;48.896;13.342;2022-07-06T09:56:07;2.35;;;1.10;;
39612;SDS011;25303;48.896;13.342;2022-07-06T09:58:50;1.48;;;0.93;;
39612;SDS011;25303;48.896;13.342;2022-07-06T10:01:44;1.58;;;0.95;;
39612;SDS011;25303;48.896;13.342;2022-07-06T10:04:28;1.38;;;0.80;;
39612;SDS011;25303;48.896;13.342;2022-07-06T10:07:13;3.10;;;0.90;;
39612;SDS011;25303;48.896;13.342;2022-07-06T10:09:57;1.38;;;0.70;;
39612;SDS011;25303;48.896;13.342;2022-07-06T10:12:40;2.70;;;0.90;;
39612;SDS011;25303;48.896;13.342;2022-07-06T10:15:27;0.98;;;0.80;;
39612;SDS011;25303;48.896;13.342;2022-07-06T10:18:13;1.38;;;0.80;;
39612;SDS011;25303;48.896;13.342;2022-07-06T10:20:57;2.50;;;0.70;;
39612;SDS011;25303;48.896;13.342;2022-07-06T10:23:42;4.65;;;0.85;;
39612;SDS011;25303;48.896;13.342;2022-07-06T10:26:26;0.90;;;0.70;;
39612;SDS011;25303;48.896;13.342;2022-07-06T10:29:09;1.40;;;0.70;;
39612;SDS011;25303;48.896;13.342;2022-07-06T10:31:52;1.52;;;0.70;;
39612;SDS011;25303;48.896;13.342;2022-07-06T10:34:36;1.65;;;0.80;;
39612;SDS011;25303;48.896;13.342;2022-07-06T10:37:23;1.15;;;0.60;;
39612;SDS011;25303;48.896;13.342;2022-07-06T10:40:09;1.65;;;0.80;;
39612;SDS011;25303;48.896;13.342;2022-07-06T10:43:10;1.27;;;0.80;;
39612;SDS011;25303;48.896;13.342;2022-07-06T10:45:54;2.78;;;0.90;;
39612;SDS011;25303;48.896;13.342;2022-07-06T10:48:39;0.80;;;0.60;;
39612;SDS011;25303;48.896;13.342;2022-07-06T10:51:22;1.23;;;0.60;;
39612;SDS011;25303;48.896;13.342;2022-07-06T10:54:06;1.55;;;0.65;;
39612;SDS011;25303;48.896;13.342;2022-07-06T10:56:53;1.35;;;0.82;;
39612;SDS011;25303;48.896;13.342;2022-07-06T10:59:36;1.48;;;0.63;;
39612;SDS011;25303;48.896;13.342;2022-07-06T11:02:19;0.70;;;0.60;;
39612;SDS011;25303;48.896;13.342;2022-07-06T11:05:08;2.85;;;0.70;;
39612;SDS011;25303;48.896;13.342;2022-07-06T11:07:53;1.00;;;0.70;;
39612;SDS011;25303;48.896;13.342;2022-07-06T11:10:46;1.50;;;0.63;;
39612;SDS011;25303;48.896;13.342;2022-07-06T11:13:31;1.25;;;0.50;;
39612;SDS011;25303;48.896;13.342;2022-07-06T11:16:14;2.63;;;1.00;;
39612;SDS011;25303;48.896;13.342;2022-07-06T11:19:00;2.28;;;0.90;;
39612;SDS011;25303;48.896;13.342;2022-07-06T11:21:51;1.70;;;0.80;;
39612;SDS011;25303;48.896;13.342;2022-07-06T11:24:38;1.90;;;0.80;;
39612;SDS011;25303;48.896;13.342;2022-07-06T11:27:22;1.48;;;0.63;;
39612;SDS011;25303;48.896;13.342;2022-07-06T11:32:54;0.93;;;0.52;;
39612;SDS011;25303;48.896;13.342;2022-07-06T11:35:37;1.70;;;0.73;;
39612;SDS011;25303;48.896;13.342;2022-07-06T11:38:26;1.20;;;0.50;;
39612;SDS011;25303;48.896;13.342;2022-07-06T11:41:10;1.70;;;0.80;;
39612;SDS011;25303;48.896;13.342;2022-07-06T11:43:55;1.17;;;0.70;;
39612;SDS011;25303;48.896;13.342;2022-07-06T11:46:39;1.77;;;0.80;;
39612;SDS011;25303;48.896;13.342;2022-07-06T11:49:22;1.10;;;0.70;;
39612;SDS011;25303;48.896;13.342;2022-07-06T11:52:06;1.63;;;0.60;;
39612;SDS011;25303;48.896;13.342;2022-07-06T11:54:56;1.02;;;0.70;;
39612;SDS011;25303;48.896;13.342;2022-07-06T11:57:40;1.42;;;0.80;;
39612;SDS011;25303;48.896;13.342;2022-07-06T12:00:23;3.47;;;0.75;;
39612;SDS011;25303;48.896;13.342;2022-07-06T12:03:08;2.25;;;1.00;;
39612;SDS011;25303;48.896;13.342;2022-07-06T12:05:51;2.15;;;0.90;;
39612;SDS011;25303;48.896;13.342;2022-07-06T12:08:40;4.50;;;1.00;;
39612;SDS011;25303;48.896;13.342;2022-07-06T12:11:24;1.95;;;0.90;;
39612;SDS011;25303;48.896;13.342;2022-07-06T12:14:12;0.90;;;0.73;;
39612;SDS011;25303;48.896;13.342;2022-07-06T12:16:59;2.80;;;0.70;;
39612;SDS011;25303;48.896;13.342;2022-07-06T12:19:51;4.53;;;0.88;;
39612;SDS011;25303;48.896;13.342;2022-07-06T12:22:35;1.73;;;0.80;;
39612;SDS011;25303;48.896;13.342;2022-07-06T12:25:28;1.02;;;0.70;;
39612;SDS011;25303;48.896;13.342;2022-07-06T12:28:21;1.10;;;0.68;;
39612;SDS011;25303;48.896;13.342;2022-07-06T12:31:05;2.03;;;0.70;;
39612;SDS011;25303;48.896;13.342;2022-07-06T12:33:55;1.17;;;0.80;;
39612;SDS011;25303;48.896;13.342;2022-07-06T12:36:43;1.67;;;0.68;;
39612;SDS011;25303;48.896;13.342;2022-07-06T12:39:27;2.30;;;0.63;;
39612;SDS011;25303;48.896;13.342;2022-07-06T12:42:12;4.72;;;0.68;;
39612;SDS011;25303;48.896;13.342;2022-07-06T12:44:59;1.27;;;0.60;;
39612;SDS011;25303;48.896;13.342;2022-07-06T12:47:49;0.80;;;0.60;;
39612;SDS011;25303;48.896;13.342;2022-07-06T12:50:40;1.20;;;0.60;;
39612;SDS011;25303;48.896;13.342;2022-07-06T12:53:26;0.50;;;0.40;;
39612;SDS011;25303;48.896;13.342;2022-07-06T12:56:11;0.82;;;0.60;;
39612;SDS011;25303;48.896;13.342;2022-07-06T12:58:58;1.05;;;0.60;;
39612;SDS011;25303;48.896;13.342;2022-07-06T13:01:46;1.25;;;0.55;;
39612;SDS011;25303;48.896;13.342;2022-07-06T13:04:30;1.67;;;0.60;;
39612;SDS011;25303;48.896;13.342;2022-07-06T13:07:17;0.80;;;0.50;;
39612;SDS011;25303;48.896;13.342;2022-07-06T13:10:03;0.75;;;0.50;;
39612;SDS011;25303;48.896;13.342;2022-07-06T13:12:48;0.82;;;0.47;;
39612;SDS011;25303;48.896;13.342;2022-07-06T13:15:31;0.85;;;0.60;;
39612;SDS011;25303;48.896;13.342;2022-07-06T13:18:14;1.00;;;0.60;;
39612;SDS011;25303;48.896;13.342;2022-07-06T13:21:00;1.02;;;0.60;;
39612;SDS011;25303;48.896;13.342;2022-07-06T13:23:43;1.38;;;0.70;;
39612;SDS011;25303;48.896;13.342;2022-07-06T13:26:27;0.63;;;0.50;;
39612;SDS011;25303;48.896;13.342;2022-07-06T13:29:10;2.38;;;0.70;;
39612;SDS011;25303;48.896;13.342;2022-07-06T13:31:53;1.00;;;0.70;;
39612;SDS011;25303;48.896;13.342;2022-07-06T13:34:36;1.77;;;0.60;;
39612;SDS011;25303;48.896;13.342;2022-07-06T13:37:19;1.75;;;0.75;;
39612;SDS011;25303;48.896;13.342;2022-07-06T13:40:03;1.42;;;0.60;;
39612;SDS011;25303;48.896;13.342;2022-07-06T13:42:48;1.63;;;0.50;;
39612;SDS011;25303;48.896;13.342;2022-07-06T13:45:31;3.78;;;0.75;;
39612;SDS011;25303;48.896;13.342;2022-07-06T13:48:14;1.35;;;0.60;;
39612;SDS011;25303;48.896;13.342;2022-07-06T13:50:57;2.97;;;0.95;;
39612;SDS011;25303;48.896;13.342;2022-07-06T13:53:40;1.02;;;0.52;;
39612;SDS011;25303;48.896;13.342;2022-07-06T13:56:23;2.92;;;0.68;;
39612;SDS011;25303;48.896;13.342;2022-07-06T13:59:08;1.38;;;0.70;;
39612;SDS011;25303;48.896;13.342;2022-07-06T14:01:51;1.55;;;0.70;;
39612;SDS011;25303;48.896;13.342;2022-07-06T14:04:34;3.00;;;0.82;;
39612;SDS011;25303;48.896;13.342;2022-07-06T14:07:17;0.93;;;0.55;;
39612;SDS011;25303;48.896;13.342;2022-07-06T14:10:01;1.20;;;0.63;;
39612;SDS011;25303;48.896;13.342;2022-07-06T14:12:44;0.95;;;0.60;;
39612;SDS011;25303;48.896;13.342;2022-07-06T14:15:28;1.23;;;0.65;;
39612;SDS011;25303;48.896;13.342;2022-07-06T14:18:11;2.08;;;0.68;;
39612;SDS011;25303;48.896;13.342;2022-07-06T14:20:56;2.42;;;0.70;;
39612;SDS011;25303;48.896;13.342;2022-07-06T14:23:38;0.80;;;0.60;;
39612;SDS011;25303;48.896;13.342;2022-07-06T14:26:21;1.77;;;0.70;;
39612;SDS011;25303;48.896;13.342;2022-07-06T14:29:04;0.63;;;0.60;;
39612;SDS011;25303;48.896;13.342;2022-07-06T14:31:48;0.68;;;0.45;;
39612;SDS011;25303;48.896;13.342;2022-07-06T14:37:14;0.95;;;0.50;;
39612;SDS011;25303;48.896;13.342;2022-07-06T14:40:01;0.77;;;0.55;;
39612;SDS011;25303;48.896;13.342;2022-07-06T14:42:44;0.90;;;0.60;;
39612;SDS011;25303;48.896;13.342;2022-07-06T14:45:27;0.77;;;0.50;;
39612;SDS011;25303;48.896;13.342;2022-07-06T14:48:11;0.90;;;0.55;;
39612;SDS011;25303;48.896;13.342;2022-07-06T14:50:55;0.75;;;0.50;;
39612;SDS011;25303;48.896;13.342;2022-07-06T14:53:39;0.65;;;0.40;;
39612;SDS011;25303;48.896;13.342;2022-07-06T14:56:22;1.08;;;0.50;;
39612;SDS011;25303;48.896;13.342;2022-07-06T14:59:05;0.50;;;0.32;;
39612;SDS011;25303;48.896;13.342;2022-07-06T15:02:05;1.08;;;0.60;;
39612;SDS011;25303;48.896;13.342;2022-07-06T15:04:49;1.55;;;0.50;;
39612;SDS011;25303;48.896;13.342;2022-07-06T15:07:32;1.02;;;0.57;;
39612;SDS011;25303;48.896;13.342;2022-07-06T15:10:15;2.42;;;0.60;;
39612;SDS011;25303;48.896;13.342;2022-07-06T15:12:58;1.52;;;0.50;;
39612;SDS011;25303;48.896;13.342;2022-07-06T15:15:41;0.88;;;0.47;;
39612;SDS011;25303;48.896;13.342;2022-07-06T15:18:40;1.70;;;0.60;;
39612;SDS011;25303;48.896;13.342;2022-07-06T15:21:24;0.88;;;0.50;;
39612;SDS011;25303;48.896;13.342;2022-07-06T15:24:07;1.95;;;0.43;;
39612;SDS011;25303;48.896;13.342;2022-07-06T15:26:50;1.63;;;0.60;;
39612;SDS011;25303;48.896;13.342;2022-07-06T15:29:34;1.52;;;0.60;;
39612;SDS011;25303;48.896;13.342;2022-07-06T15:32:17;0.88;;;0.50;;
39612;SDS011;25303;48.896;13.342;2022-07-06T15:35:00;1.20;;;0.50;;
39612;SDS011;25303;48.896;13.342;2022-07-06T15:37:47;1.73;;;0.52;;
39612;SDS011;25303;48.896;13.342;2022-07-06T15:40:35;1.15;;;0.60;;
39612;SDS011;25303;48.896;13.342;2022-07-06T15:43:22;0.57;;;0.40;;
39612;SDS011;25303;48.896;13.342;2022-07-06T15:46:05;1.38;;;0.73;;
39612;SDS011;25303;48.896;13.342;2022-07-06T15:48:49;0.80;;;0.45;;
39612;SDS011;25303;48.896;13.342;2022-07-06T15:51:32;0.73;;;0.52;;
39612;SDS011;25303;48.896;13.342;2022-07-06T15:54:17;1.58;;;0.55;;
39612;SDS011;25303;48.896;13.342;2022-07-06T15:57:00;1.23;;;0.52;;
39612;SDS011;25303;48.896;13.342;2022-07-06T15:59:43;1.00;;;0.50;;
39612;SDS011;25303;48.896;13.342;2022-07-06T16:02:26;1.17;;;0.55;;
39612;SDS011;25303;48.896;13.342;2022-07-06T16:05:09;1.92;;;0.43;;
39612;SDS011;25303;48.896;13.342;2022-07-06T16:07:52;1.08;;;0.57;;
39612;SDS011;25303;48.896;13.342;2022-07-06T16:10:56;1.58;;;0.60;;
39612;SDS011;25303;48.896;13.342;2022-07-06T16:13:40;0.88;;;0.50;;
39612;SDS011;25303;48.896;13.342;2022-07-06T16:16:23;0.85;;;0.50;;
39612;SDS011;25303;48.896;13.342;2022-07-06T16:19:06;0.47;;;0.30;;
39612;SDS011;25303;48.896;13.342;2022-07-06T16:21:49;0.95;;;0.47;;
39612;SDS011;25303;48.896;13.342;2022-07-06T16:24:32;1.83;;;0.50;;
39612;SDS011;25303;48.896;13.342;2022-07-06T16:27:27;1.50;;;0.50;;
39612;SDS011;25303;48.896;13.342;2022-07-06T16:30:11;1.23;;;0.60;;
39612;SDS011;25303;48.896;13.342;2022-07-06T16:33:01;3.80;;;0.77;;
39612;SDS011;25303;48.896;13.342;2022-07-06T16:35:44;0.80;;;0.50;;